Pagrindinis puslapis
METAR-TAF:

METAR-TAF

Oro uostai :

Lake Argyle, Australija

platuma: 16-38-13S, ilguma: 128-27-05E, Aukštis: 159 m

Dabartinis oras

Ataskaita buvo paskelbta 25 minutes, ne 01:00 UTC
Vėjas 3 kt iš Pietų/Pietryčių
Temperatūra 32°C
Drėgmė 49%
Slėgis 1007 hPa
Matomumas 10 km arba daugiau

METAR: YARG 260100Z AUTO 16003KT 9999 // NCD 32/20 Q1007

Laikas: 09:25 (01:25 UTC)


TAF: trūkstamas

Orai ataskaitas ir orų prognozės (METAR, TAF).

turimą stotys yra geltonos ir raudonos taškus žemėlapyje.

Perkelti pele per norėdami pamatyti stoties vardą.

Tada spustelėkite, norėdami matyti oro stebėjimo ir prognozės.

Norėdami pakeisti žemėlapį: spustelėkite ant žalios mygtukų su juodo kryžiaus žemyn,; žalią mygtuką su brūkšneliu, jei norite nutolinti; arba žalių rodyklių gretimoms žemėlapius.


METAR-TAF: